createdAt,value
2023-03-21T00:01:30.012Z,18.97
2023-03-21T00:03:56.975Z,19.27
2023-03-21T00:06:23.938Z,22.10
2023-03-21T00:08:51.172Z,25.73
2023-03-21T00:11:18.277Z,21.07
2023-03-21T00:13:45.238Z,19.27
2023-03-21T00:16:24.391Z,26.13
2023-03-21T00:18:58.376Z,22.07
2023-03-21T00:24:15.463Z,22.17
2023-03-21T00:26:42.356Z,20.80
2023-03-21T00:29:09.518Z,25.20
2023-03-21T00:31:36.486Z,20.43
2023-03-21T00:34:04.227Z,20.77
2023-03-21T00:36:31.959Z,25.77
2023-03-21T00:39:00.782Z,23.47
2023-03-21T00:41:41.590Z,18.10
2023-03-21T00:44:13.706Z,15.77
2023-03-21T00:46:47.235Z,19.57
2023-03-21T00:49:16.268Z,19.60
2023-03-21T00:51:43.719Z,19.67
2023-03-21T00:54:12.518Z,16.17
2023-03-21T00:56:41.220Z,19.67
2023-03-21T00:59:08.116Z,18.13
2023-03-21T01:01:36.580Z,17.27
2023-03-21T01:04:07.658Z,16.50
2023-03-21T01:06:39.524Z,14.40
2023-03-21T01:09:11.147Z,28.37
2023-03-21T01:11:38.096Z,26.00
2023-03-21T01:14:20.770Z,18.10
2023-03-21T01:16:49.442Z,18.37
2023-03-21T01:19:27.611Z,19.63
2023-03-21T01:21:58.561Z,17.30
2023-03-21T01:24:25.860Z,20.67
2023-03-21T01:26:52.772Z,16.87
2023-03-21T01:29:19.760Z,15.47
2023-03-21T01:31:46.731Z,16.77
2023-03-21T01:34:13.699Z,19.70
2023-03-21T01:36:41.545Z,18.13
2023-03-21T01:39:14.084Z,16.40
2023-03-21T01:41:44.374Z,20.23
2023-03-21T01:44:23.319Z,19.37
2023-03-21T01:47:07.382Z,22.20
2023-03-21T01:49:59.582Z,19.73
2023-03-21T01:52:38.719Z,18.60
2023-03-21T01:55:12.418Z,20.80
2023-03-21T01:58:07.013Z,17.40
2023-03-21T02:00:51.358Z,24.67
2023-03-21T02:03:49.999Z,21.93
2023-03-21T02:06:57.654Z,22.67
2023-03-21T02:09:49.294Z,19.97
2023-03-21T02:12:20.232Z,21.90
2023-03-21T02:14:50.025Z,20.30
2023-03-21T02:17:41.937Z,37.97
2023-03-21T02:20:58.514Z,28.00
2023-03-21T02:24:29.542Z,20.70
2023-03-21T02:27:15.819Z,17.90
2023-03-21T02:30:49.027Z,21.80
2023-03-21T02:33:46.574Z,19.57
2023-03-21T02:36:27.902Z,23.30
2023-03-21T02:39:07.921Z,22.30
2023-03-21T02:42:21.550Z,25.60
2023-03-21T02:45:03.149Z,26.40
2023-03-21T02:48:10.053Z,23.67
2023-03-21T02:50:49.353Z,21.30
2023-03-21T02:53:22.720Z,30.60
2023-03-21T02:55:52.914Z,24.33
2023-03-21T02:58:23.534Z,22.80
2023-03-21T03:00:56.246Z,24.20
2023-03-21T03:03:34.430Z,19.33
2023-03-21T03:06:27.655Z,22.43
2023-03-21T03:09:07.602Z,31.53
2023-03-21T03:11:42.847Z,21.10
2023-03-21T03:14:46.943Z,22.33
2023-03-21T03:17:52.699Z,19.60
2023-03-21T03:20:53.856Z,21.20
2023-03-21T03:23:41.989Z,25.17
2023-03-21T03:26:13.945Z,27.10
2023-03-21T03:28:47.854Z,30.60
2023-03-21T03:31:26.043Z,24.40
2023-03-21T03:34:07.123Z,21.13
2023-03-21T03:36:43.617Z,22.07
2023-03-21T03:39:15.487Z,20.23
2023-03-21T03:42:21.877Z,22.90
2023-03-21T03:44:42.283Z,20.53
2023-03-21T03:47:32.385Z,24.20
2023-03-21T03:50:27.715Z,20.90
2023-03-21T03:53:09.891Z,21.40
2023-03-21T03:55:44.162Z,18.13
2023-03-21T03:58:23.575Z,24.60
2023-03-21T04:00:54.285Z,22.00
2023-03-21T04:03:21.993Z,21.40
2023-03-21T04:05:50.351Z,25.03
2023-03-21T04:08:17.693Z,20.47
2023-03-21T04:10:50.228Z,26.57
2023-03-21T04:13:17.944Z,20.43
2023-03-21T04:15:51.957Z,25.67
2023-03-21T04:18:18.916Z,21.17
2023-03-21T04:20:48.455Z,48.67
2023-03-21T04:23:16.257Z,22.73
2023-03-21T04:25:55.898Z,25.93
2023-03-21T04:28:27.520Z,21.70
2023-03-21T04:31:16.085Z,22.70
2023-03-21T04:33:51.368Z,20.57
2023-03-21T04:36:27.474Z,19.13
2023-03-21T04:39:01.478Z,23.37
2023-03-21T04:41:29.625Z,20.73
2023-03-21T04:43:57.234Z,19.60
2023-03-21T04:46:24.539Z,20.20
2023-03-21T04:48:51.817Z,16.20
2023-03-21T04:51:18.742Z,21.80
2023-03-21T04:53:49.312Z,23.10
2023-03-21T04:56:16.527Z,24.77
2023-03-21T04:58:45.344Z,17.30
2023-03-21T05:01:14.457Z,28.70
2023-03-21T05:03:42.396Z,16.67
2023-03-21T05:06:10.278Z,17.77
2023-03-21T05:08:37.418Z,19.00
2023-03-21T05:11:05.549Z,21.93
2023-03-21T05:13:32.545Z,20.60
2023-03-21T05:15:59.442Z,23.30
2023-03-21T05:18:26.669Z,16.70
2023-03-21T05:21:10.757Z,19.27
2023-03-21T05:23:39.542Z,19.53
2023-03-21T05:26:08.337Z,16.57
2023-03-21T05:28:44.549Z,17.83
2023-03-21T05:31:15.747Z,18.97
2023-03-21T05:33:45.390Z,15.90
2023-03-21T05:36:16.096Z,20.63
2023-03-21T05:38:45.680Z,18.87
2023-03-21T05:41:15.463Z,23.47
2023-03-21T05:43:42.606Z,23.03
2023-03-21T05:46:11.860Z,19.53
2023-03-21T05:48:39.263Z,25.50
2023-03-21T05:51:15.212Z,16.30
2023-03-21T05:53:42.216Z,17.00
2023-03-21T05:56:09.837Z,20.53
2023-03-21T05:58:50.589Z,17.13
2023-03-21T06:01:18.827Z,20.73
2023-03-21T06:03:55.715Z,21.07
2023-03-21T06:06:24.350Z,20.17
2023-03-21T06:09:00.923Z,17.43
2023-03-21T06:11:33.247Z,18.93
2023-03-21T06:14:21.080Z,25.97
2023-03-21T06:17:05.995Z,21.87
2023-03-21T06:19:35.876Z,16.57
2023-03-21T06:22:07.456Z,18.73
2023-03-21T06:24:38.080Z,23.40
2023-03-21T06:27:05.410Z,21.90
2023-03-21T06:29:46.333Z,27.20
2023-03-21T06:32:13.761Z,20.67
2023-03-21T06:34:41.236Z,25.43
2023-03-21T06:37:10.015Z,22.90
2023-03-21T06:39:37.508Z,20.03
2023-03-21T06:42:04.661Z,21.97
2023-03-21T06:44:31.553Z,27.30
2023-03-21T06:47:03.515Z,26.77
2023-03-21T06:49:30.859Z,21.80
2023-03-21T06:52:05.263Z,29.00
2023-03-21T06:54:32.295Z,26.00
2023-03-21T06:57:02.663Z,23.17
2023-03-21T06:59:33.525Z,25.27
2023-03-21T07:02:07.246Z,22.60
2023-03-21T07:04:40.581Z,25.43
2023-03-21T07:07:12.469Z,25.20
2023-03-21T07:09:40.823Z,35.23
2023-03-21T07:12:07.872Z,26.27
2023-03-21T07:14:55.222Z,27.13
2023-03-21T07:17:22.159Z,28.27
2023-03-21T07:19:49.055Z,33.03
2023-03-21T07:22:18.557Z,30.20
2023-03-21T07:24:55.941Z,28.03
2023-03-21T07:27:26.132Z,27.30
2023-03-21T07:29:53.036Z,30.27
2023-03-21T07:32:19.942Z,29.90
2023-03-21T07:34:46.965Z,34.07
2023-03-21T07:37:14.108Z,43.73
2023-03-21T07:39:41.140Z,32.77
2023-03-21T07:44:40.336Z,39.20
2023-03-21T07:47:07.249Z,35.10
2023-03-21T07:49:34.150Z,44.27
2023-03-21T07:52:04.306Z,46.13
2023-03-21T07:54:31.871Z,50.10
2023-03-21T07:56:58.798Z,41.57
2023-03-21T07:59:25.731Z,49.00
2023-03-21T08:01:52.681Z,47.80
2023-03-21T08:04:19.587Z,50.87
2023-03-21T08:06:46.545Z,43.87
2023-03-21T08:09:13.444Z,46.03
2023-03-21T08:11:41.246Z,43.97
2023-03-21T08:14:08.178Z,46.20
2023-03-21T08:16:35.134Z,50.77
2023-03-21T08:19:02.139Z,47.60
2023-03-21T08:21:29.086Z,55.20
2023-03-21T08:23:55.969Z,51.87
2023-03-21T08:26:25.145Z,54.43
2023-03-21T08:28:52.308Z,49.50
2023-03-21T08:31:21.779Z,47.10
2023-03-21T08:33:53.704Z,52.67
2023-03-21T08:36:22.328Z,51.93
2023-03-21T08:38:53.956Z,54.00
2023-03-21T08:41:22.136Z,49.20
2023-03-21T08:43:49.564Z,50.07
2023-03-21T08:46:16.804Z,52.07
2023-03-21T08:48:43.773Z,52.33
2023-03-21T08:51:10.706Z,49.77
2023-03-21T08:53:38.025Z,47.50
2023-03-21T08:56:05.061Z,46.67
2023-03-21T08:58:31.982Z,45.40
2023-03-21T09:00:58.855Z,46.67
2023-03-21T09:03:27.354Z,48.67
2023-03-21T09:05:54.928Z,51.83
2023-03-21T09:08:23.511Z,48.20
2023-03-21T09:10:54.313Z,46.77
2023-03-21T09:13:21.610Z,47.73
2023-03-21T09:15:48.556Z,51.63
2023-03-21T09:18:18.085Z,46.87
2023-03-21T09:20:47.256Z,45.43
2023-03-21T09:23:15.269Z,48.20
2023-03-21T09:25:45.415Z,48.70
2023-03-21T09:28:13.163Z,47.03
2023-03-21T09:30:40.180Z,41.70
2023-03-21T09:33:08.851Z,44.17
2023-03-21T09:35:36.251Z,48.70
2023-03-21T09:38:04.067Z,50.83
2023-03-21T09:41:17.055Z,49.37
2023-03-21T09:44:24.621Z,44.37
2023-03-21T09:47:28.902Z,44.03
2023-03-21T09:50:13.578Z,42.10
2023-03-21T09:52:58.163Z,47.17
2023-03-21T09:55:34.759Z,47.13
2023-03-21T09:58:15.206Z,46.70
2023-03-21T10:00:48.080Z,42.53
2023-03-21T10:03:27.392Z,40.33
2023-03-21T10:06:00.667Z,34.13
2023-03-21T10:08:41.462Z,37.20
2023-03-21T10:11:24.800Z,37.30
2023-03-21T10:14:03.366Z,34.63
2023-03-21T10:16:40.813Z,29.73
2023-03-21T10:19:15.289Z,31.80
2023-03-21T10:22:00.369Z,33.40
2023-03-21T10:24:31.073Z,39.20
2023-03-21T10:26:58.132Z,27.60
2023-03-21T10:29:32.963Z,31.83
2023-03-21T10:32:00.484Z,30.17
2023-03-21T10:34:49.102Z,26.13
2023-03-21T10:37:16.863Z,28.40
2023-03-21T10:39:48.787Z,30.77
2023-03-21T10:42:24.904Z,29.10
2023-03-21T10:44:56.397Z,25.73
2023-03-21T10:47:30.784Z,27.57
2023-03-21T10:50:09.829Z,22.70
2023-03-21T10:52:45.545Z,24.70
2023-03-21T10:55:26.095Z,21.83
2023-03-21T10:58:18.730Z,21.40
2023-03-21T11:00:46.484Z,24.00
2023-03-21T11:03:24.992Z,25.67
2023-03-21T11:06:01.778Z,25.77
2023-03-21T11:08:29.611Z,25.90
2023-03-21T11:11:05.678Z,25.23
2023-03-21T11:13:44.567Z,26.43
2023-03-21T11:16:23.240Z,27.90
2023-03-21T11:18:52.819Z,25.60
2023-03-21T11:21:21.622Z,24.50
2023-03-21T11:23:52.775Z,26.00
2023-03-21T11:26:30.682Z,23.47
2023-03-21T11:28:58.208Z,32.10
2023-03-21T11:31:40.094Z,24.53
2023-03-21T11:34:09.156Z,22.33
2023-03-21T11:36:39.177Z,20.97
2023-03-21T11:39:31.637Z,22.90
2023-03-21T11:41:58.626Z,21.90
2023-03-21T11:44:35.687Z,23.10
2023-03-21T11:47:03.111Z,22.80
2023-03-21T11:49:31.008Z,24.33
2023-03-21T11:52:12.391Z,24.10
2023-03-21T11:55:19.018Z,27.73
2023-03-21T11:58:30.743Z,24.67
2023-03-21T12:01:42.006Z,24.40
2023-03-21T12:04:36.966Z,29.83
2023-03-21T12:07:28.055Z,23.27
2023-03-21T12:10:28.135Z,25.63
2023-03-21T12:13:17.033Z,24.53
2023-03-21T12:16:13.694Z,27.87
2023-03-21T12:19:12.103Z,22.20
2023-03-21T12:22:16.268Z,23.63
2023-03-21T12:24:54.868Z,27.70
2023-03-21T12:27:30.702Z,25.30
2023-03-21T12:30:53.683Z,23.70
2023-03-21T12:33:32.280Z,25.60
2023-03-21T12:36:17.738Z,22.10
2023-03-21T12:39:18.022Z,25.07
2023-03-21T12:42:02.447Z,24.60
2023-03-21T12:44:37.784Z,27.07
2023-03-21T12:47:15.947Z,27.60
2023-03-21T12:50:12.833Z,25.17
2023-03-21T12:52:44.558Z,29.20
2023-03-21T12:55:21.524Z,26.60
2023-03-21T12:58:04.880Z,32.93
2023-03-21T13:00:38.861Z,29.87
2023-03-21T13:03:13.370Z,25.13
2023-03-21T13:05:55.963Z,24.37
2023-03-21T13:08:57.733Z,25.60
2023-03-21T13:11:29.227Z,21.70
2023-03-21T13:14:06.611Z,23.97
2023-03-21T13:17:00.536Z,23.80
2023-03-21T13:20:00.879Z,29.20
2023-03-21T13:22:31.509Z,30.27
2023-03-21T13:25:16.293Z,26.47
2023-03-21T13:27:46.162Z,23.83
2023-03-21T13:30:28.526Z,28.40
2023-03-21T13:33:13.534Z,28.93
2023-03-21T13:35:44.241Z,25.43
2023-03-21T13:38:25.894Z,31.27
2023-03-21T13:40:59.025Z,25.67
2023-03-21T13:43:54.902Z,30.00
2023-03-21T13:46:38.145Z,24.17
2023-03-21T13:49:10.198Z,28.30
2023-03-21T13:51:37.065Z,27.93
2023-03-21T13:54:19.426Z,26.67
2023-03-21T13:56:50.042Z,35.70
2023-03-21T13:59:43.173Z,25.53
2023-03-21T14:02:33.692Z,29.93
2023-03-21T14:05:07.930Z,27.50
2023-03-21T14:07:44.380Z,27.47
2023-03-21T14:10:28.447Z,27.50
2023-03-21T14:12:55.604Z,24.73
2023-03-21T14:15:31.111Z,24.37
2023-03-21T14:18:15.803Z,24.63
2023-03-21T14:20:57.190Z,22.97
2023-03-21T14:23:24.552Z,26.50
2023-03-21T14:25:52.616Z,22.27
2023-03-21T14:28:29.518Z,22.10
2023-03-21T14:31:00.461Z,21.60
2023-03-21T14:33:39.530Z,23.80
2023-03-21T14:36:17.030Z,21.30
2023-03-21T14:38:47.147Z,23.73
2023-03-21T14:41:25.563Z,23.47
2023-03-21T14:44:27.898Z,24.37
2023-03-21T14:47:05.816Z,28.53
2023-03-21T14:49:36.579Z,22.33
2023-03-21T14:52:09.967Z,22.70
2023-03-21T14:54:41.153Z,25.20
2023-03-21T14:57:14.281Z,23.77
2023-03-21T14:59:42.212Z,23.60
2023-03-21T15:02:20.437Z,24.97
2023-03-21T15:04:54.424Z,23.87
2023-03-21T15:07:34.697Z,22.33
2023-03-21T15:10:07.563Z,24.30
2023-03-21T15:12:34.566Z,22.00
2023-03-21T15:15:03.153Z,22.90
2023-03-21T15:17:30.594Z,19.90
2023-03-21T15:19:57.549Z,22.53
2023-03-21T15:22:39.622Z,24.17
2023-03-21T15:25:14.040Z,23.93
2023-03-21T15:27:43.200Z,26.70
2023-03-21T15:30:24.084Z,23.50
2023-03-21T15:32:51.589Z,25.83
2023-03-21T15:35:39.079Z,28.30
2023-03-21T15:38:06.793Z,27.47
2023-03-21T15:40:35.879Z,22.10
2023-03-21T15:43:17.852Z,25.17
2023-03-21T15:45:56.187Z,27.77
2023-03-21T15:48:28.666Z,23.03
2023-03-21T15:50:55.564Z,23.80
2023-03-21T15:53:24.371Z,23.80
2023-03-21T15:55:56.908Z,22.23
2023-03-21T15:58:34.659Z,22.63
2023-03-21T16:01:08.320Z,24.03
2023-03-21T16:03:37.786Z,25.47
2023-03-21T16:06:12.477Z,23.70
2023-03-21T16:08:53.752Z,32.87
2023-03-21T16:11:28.281Z,27.73
2023-03-21T16:13:56.644Z,24.97
2023-03-21T16:16:27.445Z,26.17
2023-03-21T16:18:57.097Z,27.60
2023-03-21T16:21:30.631Z,26.40
2023-03-21T16:23:58.378Z,25.60
2023-03-21T16:26:32.411Z,21.93
2023-03-21T16:28:59.661Z,25.63
2023-03-21T16:31:30.394Z,24.17
2023-03-21T16:33:57.450Z,22.97
2023-03-21T16:36:26.197Z,26.47
2023-03-21T16:38:54.034Z,25.53
2023-03-21T16:41:23.691Z,27.63
2023-03-21T16:43:52.162Z,25.50
2023-03-21T16:46:25.788Z,24.70
2023-03-21T16:48:56.472Z,25.90
2023-03-21T16:51:30.251Z,27.13
2023-03-21T16:53:57.880Z,27.17
2023-03-21T16:56:39.886Z,29.33
2023-03-21T16:59:08.021Z,24.80
2023-03-21T17:01:38.343Z,28.43
2023-03-21T17:04:05.930Z,30.70
2023-03-21T17:06:33.306Z,32.17
2023-03-21T17:09:00.541Z,35.50
2023-03-21T17:11:31.471Z,39.33
2023-03-21T17:13:58.398Z,30.67
2023-03-21T17:16:27.223Z,31.03
2023-03-21T17:18:54.750Z,30.97
2023-03-21T17:21:28.186Z,32.00
2023-03-21T17:23:56.278Z,33.40
2023-03-21T17:26:27.445Z,29.50
2023-03-21T17:28:56.952Z,28.27
2023-03-21T17:31:26.241Z,33.00
2023-03-21T17:33:53.141Z,30.27
2023-03-21T17:36:28.342Z,31.10
2023-03-21T17:38:55.427Z,32.60
2023-03-21T17:41:22.790Z,33.10
2023-03-21T17:43:51.556Z,29.80
2023-03-21T17:46:25.113Z,28.77
2023-03-21T17:48:52.464Z,28.43
2023-03-21T17:51:19.756Z,29.93
2023-03-21T17:53:50.646Z,30.40
2023-03-21T17:56:23.100Z,27.37
2023-03-21T17:58:50.139Z,30.67
2023-03-21T18:01:17.039Z,30.20
2023-03-21T18:03:44.001Z,31.37
2023-03-21T18:06:18.088Z,30.90
2023-03-21T18:08:46.196Z,37.00
2023-03-21T18:11:13.900Z,31.37
2023-03-21T18:13:42.127Z,30.60
2023-03-21T18:16:17.164Z,29.00
2023-03-21T18:18:46.363Z,31.17
2023-03-21T18:21:19.483Z,30.13
2023-03-21T18:23:47.614Z,27.93
2023-03-21T18:26:23.841Z,27.93
2023-03-21T18:29:36.780Z,28.37
2023-03-21T18:31:38.161Z,30.57
2023-03-21T18:34:05.189Z,25.03
2023-03-21T18:36:32.168Z,31.43
2023-03-21T18:38:59.093Z,33.67
2023-03-21T18:41:25.978Z,29.50
2023-03-21T18:44:05.536Z,27.70
2023-03-21T18:46:41.728Z,34.20
2023-03-21T18:49:51.942Z,34.73
2023-03-21T18:51:55.880Z,26.13
2023-03-21T18:54:23.448Z,31.90
2023-03-21T18:57:34.184Z,26.50
2023-03-21T18:59:39.200Z,28.30
2023-03-21T19:02:07.153Z,27.77
2023-03-21T19:04:34.252Z,28.73
2023-03-21T19:07:01.274Z,28.03
2023-03-21T19:09:31.919Z,31.30
2023-03-21T19:12:03.149Z,27.10
2023-03-21T19:14:30.463Z,23.73
2023-03-21T19:19:45.983Z,31.77
2023-03-21T19:22:12.943Z,30.67
2023-03-21T19:24:40.553Z,27.90
2023-03-21T19:27:07.625Z,24.80
2023-03-21T19:29:34.530Z,19.63
2023-03-21T19:32:01.505Z,19.37
2023-03-21T19:34:29.341Z,24.50
2023-03-21T19:36:57.378Z,25.00
2023-03-21T19:39:25.065Z,25.27
2023-03-21T19:41:55.379Z,22.53
2023-03-21T19:44:32.727Z,21.43
2023-03-21T19:46:59.646Z,20.40
2023-03-21T19:49:48.569Z,24.87
2023-03-21T19:52:13.465Z,18.27
2023-03-21T19:54:40.461Z,18.63
2023-03-21T19:57:09.625Z,19.17
2023-03-21T19:59:36.541Z,15.10
2023-03-21T20:02:27.133Z,20.10
2023-03-21T20:04:51.447Z,19.80
2023-03-21T20:07:18.365Z,19.57
2023-03-21T20:09:52.848Z,20.63
2023-03-21T20:12:21.900Z,21.10
2023-03-21T20:14:49.237Z,22.43
2023-03-21T20:17:16.770Z,19.93
2023-03-21T20:19:43.786Z,18.10
2023-03-21T20:22:21.862Z,24.50
2023-03-21T20:24:55.525Z,20.03
2023-03-21T20:27:25.237Z,19.77
2023-03-21T20:30:10.148Z,24.50
2023-03-21T20:32:43.762Z,23.00
2023-03-21T20:35:21.119Z,25.07
2023-03-21T20:37:54.381Z,23.20
2023-03-21T20:40:21.630Z,23.50
2023-03-21T20:42:49.131Z,22.47
2023-03-21T20:45:17.298Z,24.60
2023-03-21T20:47:44.250Z,20.10
2023-03-21T20:50:13.875Z,25.97
2023-03-21T20:53:04.521Z,26.87
2023-03-21T20:55:34.210Z,17.90
2023-03-21T20:58:02.221Z,21.53
2023-03-21T21:00:29.804Z,21.37
2023-03-21T21:02:58.018Z,21.73
2023-03-21T21:05:30.714Z,27.17
2023-03-21T21:07:58.898Z,26.20
2023-03-21T21:10:26.229Z,29.57
2023-03-21T21:12:53.240Z,23.57
2023-03-21T21:15:20.121Z,26.67
2023-03-21T21:18:17.786Z,26.80
2023-03-21T21:20:36.887Z,25.37
2023-03-21T21:23:04.925Z,25.33
2023-03-21T21:25:33.475Z,23.57
2023-03-21T21:28:08.893Z,26.13
2023-03-21T21:30:38.635Z,22.87
2023-03-21T21:33:05.729Z,30.10
2023-03-21T21:35:33.638Z,29.13
2023-03-21T21:38:00.598Z,28.10
2023-03-21T21:40:27.495Z,24.87
2023-03-21T21:42:54.628Z,21.07
2023-03-21T21:45:21.576Z,24.97
2023-03-21T21:47:48.617Z,24.90
2023-03-21T21:50:15.532Z,24.70
2023-03-21T21:52:52.609Z,26.13
2023-03-21T21:55:19.767Z,25.10
2023-03-21T21:57:50.268Z,24.30
2023-03-21T22:00:19.690Z,20.90
2023-03-21T22:02:47.149Z,28.00
2023-03-21T22:05:14.079Z,23.73
2023-03-21T22:07:41.152Z,28.40
2023-03-21T22:10:08.671Z,28.10
2023-03-21T22:12:35.625Z,29.30
2023-03-21T22:15:06.884Z,25.70
2023-03-21T22:17:35.148Z,26.87
2023-03-21T22:20:06.488Z,28.20
2023-03-21T22:22:34.697Z,25.90
2023-03-21T22:25:02.490Z,24.20
2023-03-21T22:27:29.752Z,27.67
2023-03-21T22:29:56.630Z,27.23
2023-03-21T22:32:23.711Z,24.57
2023-03-21T22:34:50.635Z,30.60
2023-03-21T22:37:17.543Z,32.83
2023-03-21T22:39:44.431Z,26.00
2023-03-21T22:42:11.324Z,31.73
2023-03-21T22:44:38.279Z,24.30
2023-03-21T22:47:10.950Z,24.87
2023-03-21T22:49:39.004Z,33.77
2023-03-21T22:52:06.816Z,26.63
2023-03-21T22:54:33.779Z,23.33
2023-03-21T22:57:00.705Z,25.37
2023-03-21T22:59:28.667Z,21.53
2023-03-21T23:01:55.656Z,24.70
2023-03-21T23:04:23.770Z,24.83
2023-03-21T23:06:50.852Z,24.77
2023-03-21T23:09:17.968Z,24.93
2023-03-21T23:11:48.974Z,24.50
2023-03-21T23:14:17.921Z,23.60
2023-03-21T23:16:45.108Z,24.37
2023-03-21T23:19:12.245Z,21.73
2023-03-21T23:21:39.844Z,22.10
2023-03-21T23:24:07.978Z,22.80
2023-03-21T23:26:35.255Z,23.07
2023-03-21T23:29:02.117Z,24.60
2023-03-21T23:31:29.075Z,28.37
2023-03-21T23:33:58.923Z,22.53
2023-03-21T23:36:26.066Z,19.43
2023-03-21T23:38:53.211Z,21.27
2023-03-21T23:41:23.376Z,24.53
2023-03-21T23:43:51.076Z,20.60
2023-03-21T23:46:19.067Z,33.83
2023-03-21T23:48:46.985Z,22.27
2023-03-21T23:51:16.451Z,23.90
2023-03-21T23:53:45.530Z,25.80
2023-03-21T23:56:19.104Z,24.07
2023-03-21T23:58:46.937Z,21.50
